Airfield :
LOGIN :

Register | Disclaimer

   EN    FR    IT 

 










Legend :    VFR   Marginal VFR   IFR   Intensive IFR   Very Intensive IFR
Visi :
Ceiling :
>= 8 km
>= 3000ft
5 to 8 km
1000 to 3000 ft
1500m to 5 km
500 to 1000 ft
800 to 1500m
200 to 500 ft
< 800m
< 200 ft
Symbols :   Thunderstorms  Fog  Heavy snow  Heavy precipitations  Wind > 20 kt
SIGMETs :     Misc.  Thunderstorms  Icing  Turbulence  Mountain Waves  Volcanic Ashes






- Airport Elevation : 183 ft


LIBA - Amendola Foggia

CURRENT METAR :
  • 172155Z 24007KT 6000 NSC 06/04 Q1026 RMK SKC VIS MIN 6000 WIND THR11 27009KT WIND THR29 /////KT WHT

EXPIRED METARs :
  • 172055Z 27007KT 8000 NSC 06/04 Q1026 RMK SKC VIS MIN 8000 WIND THR11 28009KT WIND THR29 /////KT BLU
  • 171955Z 24007KT 9999 FEW030 07/05 Q1025 RMK FEW VIS MIN 9999 WIND THR11 23011KT WIND THR29 /////KT BLU

TAF TAF LIBA
Valid from the 17 at 21:00 until the 18 at 06:00 UTC


172000Z 1721/1806 29008KT 9999 FEW030
TEMPO 1800/1806 5000 BR FEW010



MET'MAP, your aeronautical weather chart ! - Copyright ORBIFLY December 2007 - Disclaimer

ORBIFLY MET'MAP TEAM :

Programming & Development : Alexandra Zaïnal
Concept & original design : Baudouin d'Aumeries
Assistance for programming : Marc-Olivier Méhu
Technical & hardware support : Manuel Goepfert

Contact : metmap@orbifly.com




SOURCES & CREDITS :

   NOAA